sensor_id;sensor_type;location;lat;lon;timestamp;P1;durP1;ratioP1;P2;durP2;ratioP2
4885;SDS011;2457;51.788;6.136;2023-01-04T00:02:20;8.53;;;1.87;;
4885;SDS011;2457;51.788;6.136;2023-01-04T00:04:47;5.50;;;1.40;;
4885;SDS011;2457;51.788;6.136;2023-01-04T00:07:14;6.20;;;1.40;;
4885;SDS011;2457;51.788;6.136;2023-01-04T00:09:42;4.97;;;1.53;;
4885;SDS011;2457;51.788;6.136;2023-01-04T00:12:09;4.83;;;1.33;;
4885;SDS011;2457;51.788;6.136;2023-01-04T00:14:36;5.00;;;1.20;;
4885;SDS011;2457;51.788;6.136;2023-01-04T00:17:04;7.57;;;2.00;;
4885;SDS011;2457;51.788;6.136;2023-01-04T00:19:31;4.60;;;1.33;;
4885;SDS011;2457;51.788;6.136;2023-01-04T00:21:58;5.33;;;1.67;;
4885;SDS011;2457;51.788;6.136;2023-01-04T00:24:25;6.53;;;1.77;;
4885;SDS011;2457;51.788;6.136;2023-01-04T00:26:53;6.63;;;1.73;;
4885;SDS011;2457;51.788;6.136;2023-01-04T00:29:20;6.73;;;1.80;;
4885;SDS011;2457;51.788;6.136;2023-01-04T00:31:47;8.40;;;2.17;;
4885;SDS011;2457;51.788;6.136;2023-01-04T00:34:15;6.90;;;1.60;;
4885;SDS011;2457;51.788;6.136;2023-01-04T00:36:43;5.83;;;1.30;;
4885;SDS011;2457;51.788;6.136;2023-01-04T00:39:11;4.87;;;1.50;;
4885;SDS011;2457;51.788;6.136;2023-01-04T00:41:48;7.10;;;1.60;;
4885;SDS011;2457;51.788;6.136;2023-01-04T00:44:12;8.00;;;2.20;;
4885;SDS011;2457;51.788;6.136;2023-01-04T00:46:39;6.03;;;1.53;;
4885;SDS011;2457;51.788;6.136;2023-01-04T00:49:07;6.80;;;2.00;;
4885;SDS011;2457;51.788;6.136;2023-01-04T00:51:35;6.47;;;1.77;;
4885;SDS011;2457;51.788;6.136;2023-01-04T00:54:04;7.43;;;1.63;;
4885;SDS011;2457;51.788;6.136;2023-01-04T00:56:31;5.80;;;1.43;;
4885;SDS011;2457;51.788;6.136;2023-01-04T00:59:00;5.87;;;1.53;;
4885;SDS011;2457;51.788;6.136;2023-01-04T01:01:28;6.47;;;1.33;;
4885;SDS011;2457;51.788;6.136;2023-01-04T01:03:56;9.40;;;1.90;;
4885;SDS011;2457;51.788;6.136;2023-01-04T01:06:25;6.13;;;1.57;;
4885;SDS011;2457;51.788;6.136;2023-01-04T01:08:52;5.93;;;1.80;;
4885;SDS011;2457;51.788;6.136;2023-01-04T01:11:20;6.80;;;1.30;;
4885;SDS011;2457;51.788;6.136;2023-01-04T01:13:47;9.83;;;1.77;;
4885;SDS011;2457;51.788;6.136;2023-01-04T01:16:16;4.60;;;1.23;;
4885;SDS011;2457;51.788;6.136;2023-01-04T01:18:44;6.07;;;1.70;;
4885;SDS011;2457;51.788;6.136;2023-01-04T01:21:15;5.43;;;1.30;;
4885;SDS011;2457;51.788;6.136;2023-01-04T01:23:43;5.50;;;1.53;;
4885;SDS011;2457;51.788;6.136;2023-01-04T01:26:11;5.40;;;1.67;;
4885;SDS011;2457;51.788;6.136;2023-01-04T01:28:40;7.80;;;1.80;;
4885;SDS011;2457;51.788;6.136;2023-01-04T01:31:08;6.73;;;1.47;;
4885;SDS011;2457;51.788;6.136;2023-01-04T01:33:37;4.53;;;1.27;;
4885;SDS011;2457;51.788;6.136;2023-01-04T01:36:05;7.20;;;1.43;;
4885;SDS011;2457;51.788;6.136;2023-01-04T01:38:32;4.90;;;1.43;;
4885;SDS011;2457;51.788;6.136;2023-01-04T01:41:00;4.20;;;1.10;;
4885;SDS011;2457;51.788;6.136;2023-01-04T01:46:12;5.10;;;1.27;;
4885;SDS011;2457;51.788;6.136;2023-01-04T01:48:40;3.83;;;1.23;;
4885;SDS011;2457;51.788;6.136;2023-01-04T01:51:08;4.10;;;1.47;;
4885;SDS011;2457;51.788;6.136;2023-01-04T01:53:37;5.47;;;1.50;;
4885;SDS011;2457;51.788;6.136;2023-01-04T01:56:05;9.90;;;1.57;;
4885;SDS011;2457;51.788;6.136;2023-01-04T01:58:35;4.63;;;1.47;;
4885;SDS011;2457;51.788;6.136;2023-01-04T02:01:02;3.93;;;1.23;;
4885;SDS011;2457;51.788;6.136;2023-01-04T02:03:38;6.67;;;1.47;;
4885;SDS011;2457;51.788;6.136;2023-01-04T02:06:05;6.23;;;1.30;;
4885;SDS011;2457;51.788;6.136;2023-01-04T02:08:34;3.70;;;1.20;;
4885;SDS011;2457;51.788;6.136;2023-01-04T02:11:02;6.07;;;1.53;;
4885;SDS011;2457;51.788;6.136;2023-01-04T02:13:30;5.03;;;1.20;;
4885;SDS011;2457;51.788;6.136;2023-01-04T02:16:27;5.67;;;1.03;;
4885;SDS011;2457;51.788;6.136;2023-01-04T02:19:01;3.20;;;1.00;;
4885;SDS011;2457;51.788;6.136;2023-01-04T02:21:27;4.30;;;1.20;;
4885;SDS011;2457;51.788;6.136;2023-01-04T02:24:01;4.60;;;1.37;;
4885;SDS011;2457;51.788;6.136;2023-01-04T02:34:40;4.40;;;1.03;;
4885;SDS011;2457;51.788;6.136;2023-01-04T02:37:11;4.37;;;1.23;;
4885;SDS011;2457;51.788;6.136;2023-01-04T02:39:45;3.97;;;1.20;;
4885;SDS011;2457;51.788;6.136;2023-01-04T02:45:01;4.00;;;1.17;;
4885;SDS011;2457;51.788;6.136;2023-01-04T02:47:31;3.70;;;1.20;;
4885;SDS011;2457;51.788;6.136;2023-01-04T02:53:00;3.70;;;1.10;;
4885;SDS011;2457;51.788;6.136;2023-01-04T02:55:26;5.93;;;1.30;;
4885;SDS011;2457;51.788;6.136;2023-01-04T02:57:57;3.50;;;1.00;;
4885;SDS011;2457;51.788;6.136;2023-01-04T03:00:32;6.27;;;1.30;;
4885;SDS011;2457;51.788;6.136;2023-01-04T03:03:16;3.20;;;1.00;;
4885;SDS011;2457;51.788;6.136;2023-01-04T03:11:27;3.70;;;1.00;;
4885;SDS011;2457;51.788;6.136;2023-01-04T03:14:15;4.07;;;1.13;;
4885;SDS011;2457;51.788;6.136;2023-01-04T03:16:43;4.07;;;1.10;;
4885;SDS011;2457;51.788;6.136;2023-01-04T03:19:11;4.23;;;1.30;;
4885;SDS011;2457;51.788;6.136;2023-01-04T03:21:41;4.13;;;1.17;;
4885;SDS011;2457;51.788;6.136;2023-01-04T03:24:09;3.87;;;0.90;;
4885;SDS011;2457;51.788;6.136;2023-01-04T03:26:59;3.20;;;0.90;;
4885;SDS011;2457;51.788;6.136;2023-01-04T03:29:46;4.67;;;1.10;;
4885;SDS011;2457;51.788;6.136;2023-01-04T03:32:47;3.20;;;1.00;;
4885;SDS011;2457;51.788;6.136;2023-01-04T03:35:18;3.00;;;0.80;;
4885;SDS011;2457;51.788;6.136;2023-01-04T03:37:52;3.63;;;1.13;;
4885;SDS011;2457;51.788;6.136;2023-01-04T03:40:28;3.47;;;1.00;;
4885;SDS011;2457;51.788;6.136;2023-01-04T03:43:16;4.13;;;1.10;;
4885;SDS011;2457;51.788;6.136;2023-01-04T03:46:09;4.47;;;1.07;;
4885;SDS011;2457;51.788;6.136;2023-01-04T03:48:58;3.40;;;1.00;;
4885;SDS011;2457;51.788;6.136;2023-01-04T03:51:29;3.20;;;1.00;;
4885;SDS011;2457;51.788;6.136;2023-01-04T03:53:59;3.97;;;1.00;;
4885;SDS011;2457;51.788;6.136;2023-01-04T03:56:28;3.77;;;1.00;;
4885;SDS011;2457;51.788;6.136;2023-01-04T03:58:56;4.13;;;1.03;;
4885;SDS011;2457;51.788;6.136;2023-01-04T04:01:24;3.50;;;0.90;;
4885;SDS011;2457;51.788;6.136;2023-01-04T04:03:52;3.80;;;1.00;;
4885;SDS011;2457;51.788;6.136;2023-01-04T04:06:38;3.87;;;1.00;;
4885;SDS011;2457;51.788;6.136;2023-01-04T04:09:23;4.27;;;1.00;;
4885;SDS011;2457;51.788;6.136;2023-01-04T04:11:51;3.10;;;0.90;;
4885;SDS011;2457;51.788;6.136;2023-01-04T04:14:18;3.33;;;1.00;;
4885;SDS011;2457;51.788;6.136;2023-01-04T04:16:45;3.27;;;0.87;;
4885;SDS011;2457;51.788;6.136;2023-01-04T04:19:13;3.20;;;0.90;;
4885;SDS011;2457;51.788;6.136;2023-01-04T04:21:40;3.10;;;0.90;;
4885;SDS011;2457;51.788;6.136;2023-01-04T04:24:09;3.27;;;1.00;;
4885;SDS011;2457;51.788;6.136;2023-01-04T04:26:36;4.03;;;1.10;;
4885;SDS011;2457;51.788;6.136;2023-01-04T04:29:03;4.53;;;1.00;;
4885;SDS011;2457;51.788;6.136;2023-01-04T04:31:30;3.37;;;1.10;;
4885;SDS011;2457;51.788;6.136;2023-01-04T04:33:58;3.20;;;1.00;;
4885;SDS011;2457;51.788;6.136;2023-01-04T04:36:25;4.00;;;1.00;;
4885;SDS011;2457;51.788;6.136;2023-01-04T04:38:52;4.27;;;1.33;;
4885;SDS011;2457;51.788;6.136;2023-01-04T04:41:20;3.07;;;0.83;;
4885;SDS011;2457;51.788;6.136;2023-01-04T04:44:07;3.10;;;0.90;;
4885;SDS011;2457;51.788;6.136;2023-01-04T04:46:35;3.50;;;0.90;;
4885;SDS011;2457;51.788;6.136;2023-01-04T04:49:03;3.40;;;1.00;;
4885;SDS011;2457;51.788;6.136;2023-01-04T04:51:30;4.17;;;1.07;;
4885;SDS011;2457;51.788;6.136;2023-01-04T04:53:57;3.50;;;1.00;;
4885;SDS011;2457;51.788;6.136;2023-01-04T04:56:25;3.20;;;0.80;;
4885;SDS011;2457;51.788;6.136;2023-01-04T04:58:52;3.27;;;0.90;;
4885;SDS011;2457;51.788;6.136;2023-01-04T05:01:19;4.80;;;1.30;;
4885;SDS011;2457;51.788;6.136;2023-01-04T05:03:46;4.50;;;0.90;;
4885;SDS011;2457;51.788;6.136;2023-01-04T05:06:14;3.40;;;1.00;;
4885;SDS011;2457;51.788;6.136;2023-01-04T05:08:41;3.13;;;0.80;;
4885;SDS011;2457;51.788;6.136;2023-01-04T05:11:09;3.30;;;1.10;;
4885;SDS011;2457;51.788;6.136;2023-01-04T05:13:37;4.80;;;1.00;;
4885;SDS011;2457;51.788;6.136;2023-01-04T05:16:04;3.30;;;1.00;;
4885;SDS011;2457;51.788;6.136;2023-01-04T05:18:32;4.23;;;1.50;;
4885;SDS011;2457;51.788;6.136;2023-01-04T05:20:59;3.50;;;0.90;;
4885;SDS011;2457;51.788;6.136;2023-01-04T05:23:27;4.30;;;1.10;;
4885;SDS011;2457;51.788;6.136;2023-01-04T05:25:56;4.50;;;1.20;;
4885;SDS011;2457;51.788;6.136;2023-01-04T05:28:23;3.10;;;0.80;;
4885;SDS011;2457;51.788;6.136;2023-01-04T05:30:50;4.07;;;0.90;;
4885;SDS011;2457;51.788;6.136;2023-01-04T05:33:19;4.70;;;1.13;;
4885;SDS011;2457;51.788;6.136;2023-01-04T05:35:48;3.50;;;1.10;;
4885;SDS011;2457;51.788;6.136;2023-01-04T05:38:15;3.70;;;1.10;;
4885;SDS011;2457;51.788;6.136;2023-01-04T05:40:42;3.20;;;1.00;;
4885;SDS011;2457;51.788;6.136;2023-01-04T05:43:10;4.20;;;1.00;;
4885;SDS011;2457;51.788;6.136;2023-01-04T05:45:46;3.93;;;1.00;;
4885;SDS011;2457;51.788;6.136;2023-01-04T05:48:07;3.50;;;0.93;;
4885;SDS011;2457;51.788;6.136;2023-01-04T05:50:35;3.47;;;1.13;;
4885;SDS011;2457;51.788;6.136;2023-01-04T05:53:02;6.13;;;1.20;;
4885;SDS011;2457;51.788;6.136;2023-01-04T05:55:29;3.83;;;1.20;;
4885;SDS011;2457;51.788;6.136;2023-01-04T05:57:57;3.67;;;0.97;;
4885;SDS011;2457;51.788;6.136;2023-01-04T06:00:24;3.40;;;0.80;;
4885;SDS011;2457;51.788;6.136;2023-01-04T06:02:51;4.10;;;1.23;;
4885;SDS011;2457;51.788;6.136;2023-01-04T06:05:20;3.50;;;0.90;;
4885;SDS011;2457;51.788;6.136;2023-01-04T06:07:48;7.23;;;1.53;;
4885;SDS011;2457;51.788;6.136;2023-01-04T06:10:15;4.53;;;1.00;;
4885;SDS011;2457;51.788;6.136;2023-01-04T06:12:42;4.03;;;1.30;;
4885;SDS011;2457;51.788;6.136;2023-01-04T06:15:10;3.97;;;1.23;;
4885;SDS011;2457;51.788;6.136;2023-01-04T06:17:37;3.30;;;1.00;;
4885;SDS011;2457;51.788;6.136;2023-01-04T06:20:05;3.60;;;1.00;;
4885;SDS011;2457;51.788;6.136;2023-01-04T06:22:34;3.30;;;1.07;;
4885;SDS011;2457;51.788;6.136;2023-01-04T06:25:02;7.90;;;1.10;;
4885;SDS011;2457;51.788;6.136;2023-01-04T06:27:29;3.60;;;1.20;;
4885;SDS011;2457;51.788;6.136;2023-01-04T06:29:57;4.83;;;1.20;;
4885;SDS011;2457;51.788;6.136;2023-01-04T06:32:24;5.30;;;1.30;;
4885;SDS011;2457;51.788;6.136;2023-01-04T06:34:51;3.50;;;1.10;;
4885;SDS011;2457;51.788;6.136;2023-01-04T06:37:18;3.67;;;1.20;;
4885;SDS011;2457;51.788;6.136;2023-01-04T06:39:46;3.83;;;1.00;;
4885;SDS011;2457;51.788;6.136;2023-01-04T06:42:13;3.83;;;1.17;;
4885;SDS011;2457;51.788;6.136;2023-01-04T06:44:59;3.40;;;1.13;;
4885;SDS011;2457;51.788;6.136;2023-01-04T06:47:26;6.27;;;1.33;;
4885;SDS011;2457;51.788;6.136;2023-01-04T06:49:53;5.30;;;1.20;;
4885;SDS011;2457;51.788;6.136;2023-01-04T06:52:20;3.57;;;1.17;;
4885;SDS011;2457;51.788;6.136;2023-01-04T06:54:48;3.70;;;1.07;;
4885;SDS011;2457;51.788;6.136;2023-01-04T06:57:15;4.80;;;1.40;;
4885;SDS011;2457;51.788;6.136;2023-01-04T06:59:42;4.70;;;1.23;;
4885;SDS011;2457;51.788;6.136;2023-01-04T07:02:12;4.50;;;1.30;;
4885;SDS011;2457;51.788;6.136;2023-01-04T07:04:38;4.07;;;1.10;;
4885;SDS011;2457;51.788;6.136;2023-01-04T07:07:06;3.27;;;0.93;;
4885;SDS011;2457;51.788;6.136;2023-01-04T07:09:33;5.10;;;1.33;;
4885;SDS011;2457;51.788;6.136;2023-01-04T07:12:01;3.70;;;1.30;;
4885;SDS011;2457;51.788;6.136;2023-01-04T07:14:28;4.00;;;1.20;;
4885;SDS011;2457;51.788;6.136;2023-01-04T07:16:55;4.53;;;1.40;;
4885;SDS011;2457;51.788;6.136;2023-01-04T07:19:23;3.40;;;1.00;;
4885;SDS011;2457;51.788;6.136;2023-01-04T07:21:50;3.40;;;1.00;;
4885;SDS011;2457;51.788;6.136;2023-01-04T07:24:19;4.33;;;1.20;;
4885;SDS011;2457;51.788;6.136;2023-01-04T07:26:46;3.30;;;1.10;;
4885;SDS011;2457;51.788;6.136;2023-01-04T07:29:13;3.83;;;1.40;;
4885;SDS011;2457;51.788;6.136;2023-01-04T07:31:42;4.33;;;1.10;;
4885;SDS011;2457;51.788;6.136;2023-01-04T07:34:09;3.50;;;1.20;;
4885;SDS011;2457;51.788;6.136;2023-01-04T07:36:37;3.80;;;1.30;;
4885;SDS011;2457;51.788;6.136;2023-01-04T07:39:06;3.10;;;0.90;;
4885;SDS011;2457;51.788;6.136;2023-01-04T07:41:35;4.33;;;1.10;;
4885;SDS011;2457;51.788;6.136;2023-01-04T07:44:03;3.67;;;1.00;;
4885;SDS011;2457;51.788;6.136;2023-01-04T07:46:30;3.40;;;1.00;;
4885;SDS011;2457;51.788;6.136;2023-01-04T07:48:58;3.90;;;1.00;;
4885;SDS011;2457;51.788;6.136;2023-01-04T07:51:26;4.10;;;1.07;;
4885;SDS011;2457;51.788;6.136;2023-01-04T07:53:53;4.33;;;1.00;;
4885;SDS011;2457;51.788;6.136;2023-01-04T07:56:20;3.30;;;1.00;;
4885;SDS011;2457;51.788;6.136;2023-01-04T07:58:47;3.50;;;1.03;;
4885;SDS011;2457;51.788;6.136;2023-01-04T08:01:16;6.03;;;1.40;;
4885;SDS011;2457;51.788;6.136;2023-01-04T08:03:44;4.20;;;1.20;;
4885;SDS011;2457;51.788;6.136;2023-01-04T08:06:13;3.50;;;1.10;;
4885;SDS011;2457;51.788;6.136;2023-01-04T08:08:41;4.37;;;0.90;;
4885;SDS011;2457;51.788;6.136;2023-01-04T08:11:12;4.57;;;1.00;;
4885;SDS011;2457;51.788;6.136;2023-01-04T08:13:40;7.53;;;1.10;;
4885;SDS011;2457;51.788;6.136;2023-01-04T08:16:07;4.77;;;1.33;;
4885;SDS011;2457;51.788;6.136;2023-01-04T08:18:35;4.80;;;1.00;;
4885;SDS011;2457;51.788;6.136;2023-01-04T08:21:03;3.80;;;1.10;;
4885;SDS011;2457;51.788;6.136;2023-01-04T08:23:31;3.93;;;0.93;;
4885;SDS011;2457;51.788;6.136;2023-01-04T08:26:02;3.30;;;0.87;;
4885;SDS011;2457;51.788;6.136;2023-01-04T08:28:30;4.13;;;1.20;;
4885;SDS011;2457;51.788;6.136;2023-01-04T08:30:58;4.17;;;1.20;;
4885;SDS011;2457;51.788;6.136;2023-01-04T08:33:25;3.80;;;1.30;;
4885;SDS011;2457;51.788;6.136;2023-01-04T08:35:52;5.13;;;1.10;;
4885;SDS011;2457;51.788;6.136;2023-01-04T08:38:20;3.60;;;1.17;;
4885;SDS011;2457;51.788;6.136;2023-01-04T08:40:47;5.30;;;1.10;;
4885;SDS011;2457;51.788;6.136;2023-01-04T08:43:14;5.43;;;1.10;;
4885;SDS011;2457;51.788;6.136;2023-01-04T08:45:41;4.90;;;1.10;;
4885;SDS011;2457;51.788;6.136;2023-01-04T08:48:09;4.50;;;1.27;;
4885;SDS011;2457;51.788;6.136;2023-01-04T08:50:36;8.93;;;1.30;;
4885;SDS011;2457;51.788;6.136;2023-01-04T08:53:03;4.00;;;0.90;;
4885;SDS011;2457;51.788;6.136;2023-01-04T08:55:30;3.40;;;0.90;;
4885;SDS011;2457;51.788;6.136;2023-01-04T08:58:00;3.50;;;1.00;;
4885;SDS011;2457;51.788;6.136;2023-01-04T09:00:28;4.33;;;1.20;;
4885;SDS011;2457;51.788;6.136;2023-01-04T09:02:55;4.13;;;0.87;;
4885;SDS011;2457;51.788;6.136;2023-01-04T09:05:23;3.70;;;0.97;;
4885;SDS011;2457;51.788;6.136;2023-01-04T09:07:51;4.07;;;1.30;;
4885;SDS011;2457;51.788;6.136;2023-01-04T09:10:18;7.47;;;1.30;;
4885;SDS011;2457;51.788;6.136;2023-01-04T09:12:45;3.43;;;0.80;;
4885;SDS011;2457;51.788;6.136;2023-01-04T09:15:13;4.63;;;1.00;;
4885;SDS011;2457;51.788;6.136;2023-01-04T09:17:40;6.17;;;1.43;;
4885;SDS011;2457;51.788;6.136;2023-01-04T09:20:07;4.23;;;1.20;;
4885;SDS011;2457;51.788;6.136;2023-01-04T09:22:35;4.37;;;1.20;;
4885;SDS011;2457;51.788;6.136;2023-01-04T09:25:02;5.10;;;1.40;;
4885;SDS011;2457;51.788;6.136;2023-01-04T09:27:30;4.90;;;1.20;;
4885;SDS011;2457;51.788;6.136;2023-01-04T09:29:57;4.97;;;1.23;;
4885;SDS011;2457;51.788;6.136;2023-01-04T09:32:24;4.63;;;1.03;;
4885;SDS011;2457;51.788;6.136;2023-01-04T09:34:52;4.67;;;1.57;;
4885;SDS011;2457;51.788;6.136;2023-01-04T09:37:21;6.20;;;1.23;;
4885;SDS011;2457;51.788;6.136;2023-01-04T09:39:48;4.43;;;1.30;;
4885;SDS011;2457;51.788;6.136;2023-01-04T09:42:21;4.33;;;1.20;;
4885;SDS011;2457;51.788;6.136;2023-01-04T09:47:18;4.17;;;1.10;;
4885;SDS011;2457;51.788;6.136;2023-01-04T09:49:43;3.70;;;1.10;;
4885;SDS011;2457;51.788;6.136;2023-01-04T09:52:21;4.07;;;1.30;;
4885;SDS011;2457;51.788;6.136;2023-01-04T09:54:49;5.63;;;1.20;;
4885;SDS011;2457;51.788;6.136;2023-01-04T09:57:23;4.93;;;1.20;;
4885;SDS011;2457;51.788;6.136;2023-01-04T09:59:45;4.00;;;1.13;;
4885;SDS011;2457;51.788;6.136;2023-01-04T10:02:14;4.07;;;1.00;;
4885;SDS011;2457;51.788;6.136;2023-01-04T10:04:44;3.60;;;0.90;;
4885;SDS011;2457;51.788;6.136;2023-01-04T10:07:22;5.13;;;1.80;;
4885;SDS011;2457;51.788;6.136;2023-01-04T10:09:45;4.40;;;1.00;;
4885;SDS011;2457;51.788;6.136;2023-01-04T10:12:19;4.43;;;1.30;;
4885;SDS011;2457;51.788;6.136;2023-01-04T10:17:29;4.37;;;1.20;;
4885;SDS011;2457;51.788;6.136;2023-01-04T10:25:22;3.70;;;1.00;;
4885;SDS011;2457;51.788;6.136;2023-01-04T10:27:56;3.60;;;1.10;;
4885;SDS011;2457;51.788;6.136;2023-01-04T10:33:41;5.07;;;2.10;;
4885;SDS011;2457;51.788;6.136;2023-01-04T10:35:22;4.10;;;1.23;;
4885;SDS011;2457;51.788;6.136;2023-01-04T10:37:53;3.73;;;0.97;;
4885;SDS011;2457;51.788;6.136;2023-01-04T10:40:21;4.97;;;0.97;;
4885;SDS011;2457;51.788;6.136;2023-01-04T10:42:55;5.53;;;1.40;;
4885;SDS011;2457;51.788;6.136;2023-01-04T10:45:22;3.40;;;0.90;;
4885;SDS011;2457;51.788;6.136;2023-01-04T10:47:57;3.47;;;1.00;;
4885;SDS011;2457;51.788;6.136;2023-01-04T10:50:35;3.33;;;0.90;;
4885;SDS011;2457;51.788;6.136;2023-01-04T10:53:05;3.53;;;1.00;;
4885;SDS011;2457;51.788;6.136;2023-01-04T10:55:37;5.53;;;1.33;;
4885;SDS011;2457;51.788;6.136;2023-01-04T10:58:11;5.13;;;1.20;;
4885;SDS011;2457;51.788;6.136;2023-01-04T11:00:41;5.17;;;1.40;;
4885;SDS011;2457;51.788;6.136;2023-01-04T11:03:24;5.17;;;1.10;;
4885;SDS011;2457;51.788;6.136;2023-01-04T11:08:22;3.97;;;1.00;;
4885;SDS011;2457;51.788;6.136;2023-01-04T11:10:50;4.67;;;1.13;;
4885;SDS011;2457;51.788;6.136;2023-01-04T11:13:17;3.53;;;1.10;;
4885;SDS011;2457;51.788;6.136;2023-01-04T11:15:45;3.60;;;0.90;;
4885;SDS011;2457;51.788;6.136;2023-01-04T11:18:13;3.30;;;1.00;;
4885;SDS011;2457;51.788;6.136;2023-01-04T11:20:42;3.93;;;1.23;;
4885;SDS011;2457;51.788;6.136;2023-01-04T11:25:40;6.13;;;1.00;;
4885;SDS011;2457;51.788;6.136;2023-01-04T11:28:11;4.10;;;1.07;;
4885;SDS011;2457;51.788;6.136;2023-01-04T11:30:47;3.60;;;1.00;;
4885;SDS011;2457;51.788;6.136;2023-01-04T11:33:16;4.63;;;1.10;;
4885;SDS011;2457;51.788;6.136;2023-01-04T11:35:45;3.60;;;1.00;;
4885;SDS011;2457;51.788;6.136;2023-01-04T11:41:04;3.70;;;1.10;;
4885;SDS011;2457;51.788;6.136;2023-01-04T11:43:17;3.50;;;1.00;;
4885;SDS011;2457;51.788;6.136;2023-01-04T11:45:51;4.77;;;1.20;;
4885;SDS011;2457;51.788;6.136;2023-01-04T11:48:16;4.00;;;1.10;;
4885;SDS011;2457;51.788;6.136;2023-01-04T11:50:44;4.10;;;1.00;;
4885;SDS011;2457;51.788;6.136;2023-01-04T11:53:21;3.83;;;0.90;;
4885;SDS011;2457;51.788;6.136;2023-01-04T11:55:49;3.40;;;1.00;;
4885;SDS011;2457;51.788;6.136;2023-01-04T11:58:17;3.60;;;1.03;;
4885;SDS011;2457;51.788;6.136;2023-01-04T12:00:49;3.60;;;0.90;;
4885;SDS011;2457;51.788;6.136;2023-01-04T12:03:19;6.27;;;1.50;;
4885;SDS011;2457;51.788;6.136;2023-01-04T12:05:46;3.50;;;0.90;;
4885;SDS011;2457;51.788;6.136;2023-01-04T12:08:25;6.80;;;0.90;;
4885;SDS011;2457;51.788;6.136;2023-01-04T12:10:44;3.30;;;0.87;;
4885;SDS011;2457;51.788;6.136;2023-01-04T12:13:12;5.13;;;0.97;;
4885;SDS011;2457;51.788;6.136;2023-01-04T12:18:21;3.60;;;0.90;;
4885;SDS011;2457;51.788;6.136;2023-01-04T12:20:48;3.50;;;1.00;;
4885;SDS011;2457;51.788;6.136;2023-01-04T12:23:16;4.77;;;1.20;;
4885;SDS011;2457;51.788;6.136;2023-01-04T12:25:44;3.30;;;0.80;;
4885;SDS011;2457;51.788;6.136;2023-01-04T12:28:30;4.17;;;0.90;;
4885;SDS011;2457;51.788;6.136;2023-01-04T12:33:44;3.70;;;0.80;;
4885;SDS011;2457;51.788;6.136;2023-01-04T12:36:13;3.70;;;0.80;;
4885;SDS011;2457;51.788;6.136;2023-01-04T12:41:22;3.20;;;0.80;;
4885;SDS011;2457;51.788;6.136;2023-01-04T12:43:50;3.30;;;0.80;;
4885;SDS011;2457;51.788;6.136;2023-01-04T12:54:49;3.60;;;0.90;;
4885;SDS011;2457;51.788;6.136;2023-01-04T12:59:53;4.77;;;1.03;;
4885;SDS011;2457;51.788;6.136;2023-01-04T13:02:27;4.10;;;1.03;;
4885;SDS011;2457;51.788;6.136;2023-01-04T13:04:59;4.97;;;1.00;;
4885;SDS011;2457;51.788;6.136;2023-01-04T13:08:10;3.47;;;0.90;;
4885;SDS011;2457;51.788;6.136;2023-01-04T13:10:16;4.47;;;0.90;;
4885;SDS011;2457;51.788;6.136;2023-01-04T13:15:17;4.37;;;1.00;;
4885;SDS011;2457;51.788;6.136;2023-01-04T13:17:43;3.40;;;0.80;;
4885;SDS011;2457;51.788;6.136;2023-01-04T13:20:14;4.07;;;1.00;;
4885;SDS011;2457;51.788;6.136;2023-01-04T13:22:44;3.33;;;0.90;;
4885;SDS011;2457;51.788;6.136;2023-01-04T13:25:11;4.57;;;0.97;;
4885;SDS011;2457;51.788;6.136;2023-01-04T13:27:53;3.30;;;0.90;;
4885;SDS011;2457;51.788;6.136;2023-01-04T13:30:26;3.80;;;1.00;;
4885;SDS011;2457;51.788;6.136;2023-01-04T13:32:37;4.17;;;1.00;;
4885;SDS011;2457;51.788;6.136;2023-01-04T13:35:11;3.67;;;1.10;;
4885;SDS011;2457;51.788;6.136;2023-01-04T13:37:40;3.30;;;0.90;;
4885;SDS011;2457;51.788;6.136;2023-01-04T13:43:01;3.43;;;1.00;;
4885;SDS011;2457;51.788;6.136;2023-01-04T13:45:41;4.13;;;1.13;;
4885;SDS011;2457;51.788;6.136;2023-01-04T13:48:08;3.90;;;1.30;;
4885;SDS011;2457;51.788;6.136;2023-01-04T13:50:35;4.10;;;1.23;;
4885;SDS011;2457;51.788;6.136;2023-01-04T13:53:03;4.60;;;1.30;;
4885;SDS011;2457;51.788;6.136;2023-01-04T13:55:31;3.60;;;1.10;;
4885;SDS011;2457;51.788;6.136;2023-01-04T13:58:03;5.20;;;1.67;;
4885;SDS011;2457;51.788;6.136;2023-01-04T14:00:40;3.90;;;1.10;;
4885;SDS011;2457;51.788;6.136;2023-01-04T14:03:13;3.80;;;1.27;;
4885;SDS011;2457;51.788;6.136;2023-01-04T14:05:44;3.57;;;1.00;;
4885;SDS011;2457;51.788;6.136;2023-01-04T14:08:14;3.40;;;0.90;;
4885;SDS011;2457;51.788;6.136;2023-01-04T14:10:41;3.60;;;1.10;;
4885;SDS011;2457;51.788;6.136;2023-01-04T14:13:13;4.10;;;1.47;;
4885;SDS011;2457;51.788;6.136;2023-01-04T14:15:38;3.60;;;1.20;;
4885;SDS011;2457;51.788;6.136;2023-01-04T14:18:20;4.23;;;1.30;;
4885;SDS011;2457;51.788;6.136;2023-01-04T14:20:34;4.00;;;1.20;;
4885;SDS011;2457;51.788;6.136;2023-01-04T14:23:02;3.60;;;1.20;;
4885;SDS011;2457;51.788;6.136;2023-01-04T14:31:29;4.83;;;1.40;;
4885;SDS011;2457;51.788;6.136;2023-01-04T14:33:19;5.00;;;1.40;;
4885;SDS011;2457;51.788;6.136;2023-01-04T14:38:37;3.67;;;1.30;;
4885;SDS011;2457;51.788;6.136;2023-01-04T14:41:11;4.20;;;1.57;;
4885;SDS011;2457;51.788;6.136;2023-01-04T14:43:43;5.50;;;1.50;;
4885;SDS011;2457;51.788;6.136;2023-01-04T14:46:11;10.80;;;1.90;;
4885;SDS011;2457;51.788;6.136;2023-01-04T14:48:38;4.43;;;1.50;;
4885;SDS011;2457;51.788;6.136;2023-01-04T14:51:05;5.47;;;1.43;;
4885;SDS011;2457;51.788;6.136;2023-01-04T14:53:33;6.23;;;1.73;;
4885;SDS011;2457;51.788;6.136;2023-01-04T14:56:01;5.03;;;1.67;;
4885;SDS011;2457;51.788;6.136;2023-01-04T14:58:29;4.37;;;1.60;;
4885;SDS011;2457;51.788;6.136;2023-01-04T15:00:56;4.50;;;1.50;;
4885;SDS011;2457;51.788;6.136;2023-01-04T15:03:23;6.87;;;1.53;;
4885;SDS011;2457;51.788;6.136;2023-01-04T15:05:50;6.13;;;1.70;;
4885;SDS011;2457;51.788;6.136;2023-01-04T15:08:18;5.83;;;1.57;;
4885;SDS011;2457;51.788;6.136;2023-01-04T15:10:45;4.63;;;1.57;;
4885;SDS011;2457;51.788;6.136;2023-01-04T15:13:13;4.27;;;1.60;;
4885;SDS011;2457;51.788;6.136;2023-01-04T15:15:41;4.93;;;1.50;;
4885;SDS011;2457;51.788;6.136;2023-01-04T15:18:08;4.23;;;1.80;;
4885;SDS011;2457;51.788;6.136;2023-01-04T15:20:37;4.53;;;1.60;;
4885;SDS011;2457;51.788;6.136;2023-01-04T15:23:04;5.70;;;2.17;;
4885;SDS011;2457;51.788;6.136;2023-01-04T15:25:32;4.03;;;1.77;;
4885;SDS011;2457;51.788;6.136;2023-01-04T15:27:59;5.07;;;1.70;;
4885;SDS011;2457;51.788;6.136;2023-01-04T15:30:26;4.47;;;1.77;;
4885;SDS011;2457;51.788;6.136;2023-01-04T15:32:54;6.07;;;1.70;;
4885;SDS011;2457;51.788;6.136;2023-01-04T15:35:21;3.93;;;1.43;;
4885;SDS011;2457;51.788;6.136;2023-01-04T15:37:48;3.90;;;1.50;;
4885;SDS011;2457;51.788;6.136;2023-01-04T15:40:17;7.20;;;1.90;;
4885;SDS011;2457;51.788;6.136;2023-01-04T15:42:44;5.20;;;1.87;;
4885;SDS011;2457;51.788;6.136;2023-01-04T15:45:33;5.73;;;2.07;;
4885;SDS011;2457;51.788;6.136;2023-01-04T15:47:55;6.57;;;1.93;;
4885;SDS011;2457;51.788;6.136;2023-01-04T15:50:24;5.03;;;1.90;;
4885;SDS011;2457;51.788;6.136;2023-01-04T15:52:52;5.10;;;1.93;;
4885;SDS011;2457;51.788;6.136;2023-01-04T15:55:19;4.87;;;1.80;;
4885;SDS011;2457;51.788;6.136;2023-01-04T15:57:46;6.03;;;2.13;;
4885;SDS011;2457;51.788;6.136;2023-01-04T16:00:14;5.77;;;2.00;;
4885;SDS011;2457;51.788;6.136;2023-01-04T16:02:41;7.23;;;2.57;;
4885;SDS011;2457;51.788;6.136;2023-01-04T16:05:08;8.63;;;2.50;;
4885;SDS011;2457;51.788;6.136;2023-01-04T16:07:36;7.20;;;2.03;;
4885;SDS011;2457;51.788;6.136;2023-01-04T16:10:03;10.83;;;4.23;;
4885;SDS011;2457;51.788;6.136;2023-01-04T16:12:31;6.17;;;2.40;;
4885;SDS011;2457;51.788;6.136;2023-01-04T16:17:36;8.13;;;2.30;;
4885;SDS011;2457;51.788;6.136;2023-01-04T16:20:03;12.10;;;2.43;;
4885;SDS011;2457;51.788;6.136;2023-01-04T16:22:31;9.00;;;2.30;;
4885;SDS011;2457;51.788;6.136;2023-01-04T16:24:58;8.47;;;2.30;;
4885;SDS011;2457;51.788;6.136;2023-01-04T16:27:25;6.40;;;2.70;;
4885;SDS011;2457;51.788;6.136;2023-01-04T16:29:53;7.87;;;1.87;;
4885;SDS011;2457;51.788;6.136;2023-01-04T16:32:20;10.00;;;1.83;;
4885;SDS011;2457;51.788;6.136;2023-01-04T16:34:48;7.60;;;2.27;;
4885;SDS011;2457;51.788;6.136;2023-01-04T16:37:16;7.33;;;1.90;;
4885;SDS011;2457;51.788;6.136;2023-01-04T16:39:43;17.30;;;2.67;;
4885;SDS011;2457;51.788;6.136;2023-01-04T16:42:11;7.10;;;2.37;;
4885;SDS011;2457;51.788;6.136;2023-01-04T16:44:38;9.47;;;3.10;;
4885;SDS011;2457;51.788;6.136;2023-01-04T16:47:06;11.57;;;2.90;;